sensor_id;sensor_type;location;lat;lon;timestamp;temperature;humidity
50804;DHT22;37205;51.434;6.756;2022-10-31T00:01:35;15.80;99.90
50804;DHT22;37205;51.434;6.756;2022-10-31T00:04:01;15.80;99.90
50804;DHT22;37205;51.434;6.756;2022-10-31T00:06:27;15.80;99.90
50804;DHT22;37205;51.434;6.756;2022-10-31T00:09:02;15.70;99.90
50804;DHT22;37205;51.434;6.756;2022-10-31T00:11:28;15.70;99.90
50804;DHT22;37205;51.434;6.756;2022-10-31T00:13:54;15.70;99.90
50804;DHT22;37205;51.434;6.756;2022-10-31T00:16:22;15.70;99.90
50804;DHT22;37205;51.434;6.756;2022-10-31T00:18:49;15.60;99.90
50804;DHT22;37205;51.434;6.756;2022-10-31T00:21:15;15.70;99.90
50804;DHT22;37205;51.434;6.756;2022-10-31T00:23:41;15.70;99.90
50804;DHT22;37205;51.434;6.756;2022-10-31T00:26:06;15.60;99.90
50804;DHT22;37205;51.434;6.756;2022-10-31T00:28:32;15.70;99.90
50804;DHT22;37205;51.434;6.756;2022-10-31T00:31:02;15.60;99.90
50804;DHT22;37205;51.434;6.756;2022-10-31T00:33:29;15.60;99.90
50804;DHT22;37205;51.434;6.756;2022-10-31T00:35:55;15.50;99.90
50804;DHT22;37205;51.434;6.756;2022-10-31T00:38:20;15.50;99.90
50804;DHT22;37205;51.434;6.756;2022-10-31T00:40:46;15.50;99.90
50804;DHT22;37205;51.434;6.756;2022-10-31T00:43:12;15.40;99.90
50804;DHT22;37205;51.434;6.756;2022-10-31T00:45:37;15.50;99.90
50804;DHT22;37205;51.434;6.756;2022-10-31T00:48:03;15.50;99.90
50804;DHT22;37205;51.434;6.756;2022-10-31T00:50:29;15.40;99.90
50804;DHT22;37205;51.434;6.756;2022-10-31T00:52:55;15.50;99.90
50804;DHT22;37205;51.434;6.756;2022-10-31T00:55:22;15.40;99.90
50804;DHT22;37205;51.434;6.756;2022-10-31T00:57:47;15.40;99.90
50804;DHT22;37205;51.434;6.756;2022-10-31T01:00:13;15.30;99.90
50804;DHT22;37205;51.434;6.756;2022-10-31T01:02:39;15.40;99.90
50804;DHT22;37205;51.434;6.756;2022-10-31T01:05:05;15.40;99.90
50804;DHT22;37205;51.434;6.756;2022-10-31T01:07:31;15.40;99.90
50804;DHT22;37205;51.434;6.756;2022-10-31T01:09:56;15.40;99.90
50804;DHT22;37205;51.434;6.756;2022-10-31T01:12:22;15.50;99.90
50804;DHT22;37205;51.434;6.756;2022-10-31T01:14:47;15.40;99.90
50804;DHT22;37205;51.434;6.756;2022-10-31T01:17:13;15.40;99.90
50804;DHT22;37205;51.434;6.756;2022-10-31T01:19:39;15.40;99.90
50804;DHT22;37205;51.434;6.756;2022-10-31T01:22:05;15.30;99.90
50804;DHT22;37205;51.434;6.756;2022-10-31T01:24:32;15.30;99.90
50804;DHT22;37205;51.434;6.756;2022-10-31T01:26:57;15.30;99.90
50804;DHT22;37205;51.434;6.756;2022-10-31T01:29:23;15.30;99.90
50804;DHT22;37205;51.434;6.756;2022-10-31T01:31:48;15.30;99.90
50804;DHT22;37205;51.434;6.756;2022-10-31T01:34:16;15.30;99.90
50804;DHT22;37205;51.434;6.756;2022-10-31T01:36:42;15.30;99.90
50804;DHT22;37205;51.434;6.756;2022-10-31T01:39:12;15.30;99.90
50804;DHT22;37205;51.434;6.756;2022-10-31T01:41:46;15.20;99.90
50804;DHT22;37205;51.434;6.756;2022-10-31T01:46:41;15.10;99.90
50804;DHT22;37205;51.434;6.756;2022-10-31T01:49:21;15.10;99.90
50804;DHT22;37205;51.434;6.756;2022-10-31T01:51:56;15.00;99.90
50804;DHT22;37205;51.434;6.756;2022-10-31T01:54:26;15.00;99.90
50804;DHT22;37205;51.434;6.756;2022-10-31T01:56:55;15.00;99.90
50804;DHT22;37205;51.434;6.756;2022-10-31T01:59:22;15.00;99.90
50804;DHT22;37205;51.434;6.756;2022-10-31T02:01:50;14.90;99.90
50804;DHT22;37205;51.434;6.756;2022-10-31T02:04:17;14.80;99.90
50804;DHT22;37205;51.434;6.756;2022-10-31T02:06:49;14.70;99.90
50804;DHT22;37205;51.434;6.756;2022-10-31T02:09:16;14.70;99.90
50804;DHT22;37205;51.434;6.756;2022-10-31T02:11:43;14.70;99.90
50804;DHT22;37205;51.434;6.756;2022-10-31T02:14:10;14.70;99.90
50804;DHT22;37205;51.434;6.756;2022-10-31T02:16:35;14.60;99.90
50804;DHT22;37205;51.434;6.756;2022-10-31T02:19:01;14.60;99.90
50804;DHT22;37205;51.434;6.756;2022-10-31T02:21:37;14.60;99.90
50804;DHT22;37205;51.434;6.756;2022-10-31T02:24:23;14.60;99.90
50804;DHT22;37205;51.434;6.756;2022-10-31T02:29:57;14.50;99.90
50804;DHT22;37205;51.434;6.756;2022-10-31T02:34:58;14.50;99.90
50804;DHT22;37205;51.434;6.756;2022-10-31T02:37:31;14.50;99.90
50804;DHT22;37205;51.434;6.756;2022-10-31T02:40:17;14.50;99.90
50804;DHT22;37205;51.434;6.756;2022-10-31T02:46:07;14.40;99.90
50804;DHT22;37205;51.434;6.756;2022-10-31T02:48:35;14.30;99.90
50804;DHT22;37205;51.434;6.756;2022-10-31T02:51:03;14.30;99.90
50804;DHT22;37205;51.434;6.756;2022-10-31T02:53:36;14.30;99.90
50804;DHT22;37205;51.434;6.756;2022-10-31T02:58:34;14.30;99.90
50804;DHT22;37205;51.434;6.756;2022-10-31T03:01:55;14.20;99.90
50804;DHT22;37205;51.434;6.756;2022-10-31T03:07:34;14.20;99.90
50804;DHT22;37205;51.434;6.756;2022-10-31T03:15:34;14.10;99.90
50804;DHT22;37205;51.434;6.756;2022-10-31T03:18:11;14.10;99.90
50804;DHT22;37205;51.434;6.756;2022-10-31T03:23:15;14.00;99.90
50804;DHT22;37205;51.434;6.756;2022-10-31T03:25:42;14.00;99.90
50804;DHT22;37205;51.434;6.756;2022-10-31T03:28:11;14.00;99.90
50804;DHT22;37205;51.434;6.756;2022-10-31T03:30:39;14.00;99.90
50804;DHT22;37205;51.434;6.756;2022-10-31T03:33:14;13.90;99.90
50804;DHT22;37205;51.434;6.756;2022-10-31T03:35:44;13.90;99.90
50804;DHT22;37205;51.434;6.756;2022-10-31T03:38:10;13.90;99.90
50804;DHT22;37205;51.434;6.756;2022-10-31T03:40:37;13.90;99.90
50804;DHT22;37205;51.434;6.756;2022-10-31T03:43:11;13.80;99.90
50804;DHT22;37205;51.434;6.756;2022-10-31T03:45:45;13.80;99.90
50804;DHT22;37205;51.434;6.756;2022-10-31T03:48:12;13.80;99.90
50804;DHT22;37205;51.434;6.756;2022-10-31T03:51:09;13.80;99.90
50804;DHT22;37205;51.434;6.756;2022-10-31T03:54:04;13.80;99.90
50804;DHT22;37205;51.434;6.756;2022-10-31T03:56:37;13.70;99.90
50804;DHT22;37205;51.434;6.756;2022-10-31T03:59:09;13.70;99.90
50804;DHT22;37205;51.434;6.756;2022-10-31T04:01:41;13.70;99.90
50804;DHT22;37205;51.434;6.756;2022-10-31T04:04:09;13.70;99.90
50804;DHT22;37205;51.434;6.756;2022-10-31T04:06:37;13.70;99.90
50804;DHT22;37205;51.434;6.756;2022-10-31T04:09:06;13.70;99.90
50804;DHT22;37205;51.434;6.756;2022-10-31T04:11:35;13.60;99.90
50804;DHT22;37205;51.434;6.756;2022-10-31T04:14:02;13.50;99.90
50804;DHT22;37205;51.434;6.756;2022-10-31T04:16:30;13.50;99.90
50804;DHT22;37205;51.434;6.756;2022-10-31T04:18:55;13.50;99.90
50804;DHT22;37205;51.434;6.756;2022-10-31T04:21:30;13.50;99.90
50804;DHT22;37205;51.434;6.756;2022-10-31T04:23:56;13.50;99.90
50804;DHT22;37205;51.434;6.756;2022-10-31T04:26:21;13.50;99.90
50804;DHT22;37205;51.434;6.756;2022-10-31T04:28:47;13.50;99.90
50804;DHT22;37205;51.434;6.756;2022-10-31T04:31:13;13.60;99.90
50804;DHT22;37205;51.434;6.756;2022-10-31T04:33:38;13.60;99.90
50804;DHT22;37205;51.434;6.756;2022-10-31T04:36:04;13.50;99.90
50804;DHT22;37205;51.434;6.756;2022-10-31T04:38:30;13.50;99.90
50804;DHT22;37205;51.434;6.756;2022-10-31T04:40:56;13.50;99.90
50804;DHT22;37205;51.434;6.756;2022-10-31T04:43:22;13.50;99.90
50804;DHT22;37205;51.434;6.756;2022-10-31T04:45:47;13.50;99.90
50804;DHT22;37205;51.434;6.756;2022-10-31T04:48:13;13.50;99.90
50804;DHT22;37205;51.434;6.756;2022-10-31T04:50:38;13.50;99.90
50804;DHT22;37205;51.434;6.756;2022-10-31T04:53:04;13.50;99.90
50804;DHT22;37205;51.434;6.756;2022-10-31T04:55:30;13.50;99.90
50804;DHT22;37205;51.434;6.756;2022-10-31T04:57:55;13.50;99.90
50804;DHT22;37205;51.434;6.756;2022-10-31T05:00:21;13.50;99.90
50804;DHT22;37205;51.434;6.756;2022-10-31T05:02:50;13.50;99.90
50804;DHT22;37205;51.434;6.756;2022-10-31T05:05:17;13.50;99.90
50804;DHT22;37205;51.434;6.756;2022-10-31T05:07:45;13.60;99.90
50804;DHT22;37205;51.434;6.756;2022-10-31T05:10:14;13.50;99.90
50804;DHT22;37205;51.434;6.756;2022-10-31T05:12:50;13.40;99.90
50804;DHT22;37205;51.434;6.756;2022-10-31T05:15:17;13.40;99.90
50804;DHT22;37205;51.434;6.756;2022-10-31T05:17:43;13.40;99.90
50804;DHT22;37205;51.434;6.756;2022-10-31T05:20:11;13.30;99.90
50804;DHT22;37205;51.434;6.756;2022-10-31T05:22:36;13.30;99.90
50804;DHT22;37205;51.434;6.756;2022-10-31T05:25:02;13.40;99.90
50804;DHT22;37205;51.434;6.756;2022-10-31T05:27:28;13.40;99.90
50804;DHT22;37205;51.434;6.756;2022-10-31T05:29:53;13.40;99.90
50804;DHT22;37205;51.434;6.756;2022-10-31T05:32:19;13.30;99.90
50804;DHT22;37205;51.434;6.756;2022-10-31T05:34:44;13.30;99.90
50804;DHT22;37205;51.434;6.756;2022-10-31T05:37:10;13.30;99.90
50804;DHT22;37205;51.434;6.756;2022-10-31T05:39:35;13.30;99.90
50804;DHT22;37205;51.434;6.756;2022-10-31T05:42:01;13.30;99.90
50804;DHT22;37205;51.434;6.756;2022-10-31T05:44:27;13.20;99.90
50804;DHT22;37205;51.434;6.756;2022-10-31T05:46:52;13.30;99.90
50804;DHT22;37205;51.434;6.756;2022-10-31T05:49:18;13.20;99.90
50804;DHT22;37205;51.434;6.756;2022-10-31T05:51:44;13.20;99.90
50804;DHT22;37205;51.434;6.756;2022-10-31T05:54:09;13.20;99.90
50804;DHT22;37205;51.434;6.756;2022-10-31T05:56:35;13.20;99.90
50804;DHT22;37205;51.434;6.756;2022-10-31T05:59:00;13.20;99.90
50804;DHT22;37205;51.434;6.756;2022-10-31T06:01:26;13.10;99.90
50804;DHT22;37205;51.434;6.756;2022-10-31T06:03:52;13.10;99.90
50804;DHT22;37205;51.434;6.756;2022-10-31T06:06:17;13.10;99.90
50804;DHT22;37205;51.434;6.756;2022-10-31T06:08:43;13.20;99.90
50804;DHT22;37205;51.434;6.756;2022-10-31T06:11:08;13.20;99.90
50804;DHT22;37205;51.434;6.756;2022-10-31T06:13:34;13.20;99.90
50804;DHT22;37205;51.434;6.756;2022-10-31T06:16:00;13.10;99.90
50804;DHT22;37205;51.434;6.756;2022-10-31T06:18:25;13.10;99.90
50804;DHT22;37205;51.434;6.756;2022-10-31T06:20:51;13.10;99.90
50804;DHT22;37205;51.434;6.756;2022-10-31T06:23:16;13.10;99.90
50804;DHT22;37205;51.434;6.756;2022-10-31T06:25:42;13.20;99.90
50804;DHT22;37205;51.434;6.756;2022-10-31T06:28:07;13.20;99.90
50804;DHT22;37205;51.434;6.756;2022-10-31T06:30:33;13.10;99.90
50804;DHT22;37205;51.434;6.756;2022-10-31T06:33:03;13.10;99.90
50804;DHT22;37205;51.434;6.756;2022-10-31T06:35:29;13.10;99.90
50804;DHT22;37205;51.434;6.756;2022-10-31T06:37:55;13.20;99.90
50804;DHT22;37205;51.434;6.756;2022-10-31T06:40:21;13.20;99.90
50804;DHT22;37205;51.434;6.756;2022-10-31T06:42:46;13.10;99.90
50804;DHT22;37205;51.434;6.756;2022-10-31T06:45:12;13.20;99.90
50804;DHT22;37205;51.434;6.756;2022-10-31T06:47:38;13.20;99.90
50804;DHT22;37205;51.434;6.756;2022-10-31T06:50:04;13.20;99.90
50804;DHT22;37205;51.434;6.756;2022-10-31T06:52:30;13.10;99.90
50804;DHT22;37205;51.434;6.756;2022-10-31T06:54:55;13.20;99.90
50804;DHT22;37205;51.434;6.756;2022-10-31T06:57:21;13.10;99.90
50804;DHT22;37205;51.434;6.756;2022-10-31T06:59:46;13.20;99.90
50804;DHT22;37205;51.434;6.756;2022-10-31T07:02:12;13.10;99.90
50804;DHT22;37205;51.434;6.756;2022-10-31T07:04:38;13.20;99.90
50804;DHT22;37205;51.434;6.756;2022-10-31T07:07:03;13.10;99.90
50804;DHT22;37205;51.434;6.756;2022-10-31T07:09:29;13.10;99.90
50804;DHT22;37205;51.434;6.756;2022-10-31T07:11:54;13.20;99.90
50804;DHT22;37205;51.434;6.756;2022-10-31T07:14:20;13.10;99.90
50804;DHT22;37205;51.434;6.756;2022-10-31T07:16:49;13.20;99.90
50804;DHT22;37205;51.434;6.756;2022-10-31T07:19:15;13.10;99.90
50804;DHT22;37205;51.434;6.756;2022-10-31T07:21:41;13.20;99.90
50804;DHT22;37205;51.434;6.756;2022-10-31T07:24:07;13.20;99.90
50804;DHT22;37205;51.434;6.756;2022-10-31T07:26:32;13.20;99.90
50804;DHT22;37205;51.434;6.756;2022-10-31T07:28:58;13.20;99.90
50804;DHT22;37205;51.434;6.756;2022-10-31T07:31:25;13.20;99.90
50804;DHT22;37205;51.434;6.756;2022-10-31T07:33:50;13.20;99.90
50804;DHT22;37205;51.434;6.756;2022-10-31T07:36:16;13.20;99.90
50804;DHT22;37205;51.434;6.756;2022-10-31T07:38:42;13.20;99.90
50804;DHT22;37205;51.434;6.756;2022-10-31T07:41:10;13.10;99.90
50804;DHT22;37205;51.434;6.756;2022-10-31T07:43:35;13.20;99.90
50804;DHT22;37205;51.434;6.756;2022-10-31T07:46:01;13.10;99.90
50804;DHT22;37205;51.434;6.756;2022-10-31T07:48:26;13.20;99.90
50804;DHT22;37205;51.434;6.756;2022-10-31T07:50:52;13.20;99.90
50804;DHT22;37205;51.434;6.756;2022-10-31T07:53:17;13.20;99.90
50804;DHT22;37205;51.434;6.756;2022-10-31T07:55:43;13.20;99.90
50804;DHT22;37205;51.434;6.756;2022-10-31T07:58:13;13.30;99.90
50804;DHT22;37205;51.434;6.756;2022-10-31T08:00:40;13.30;99.90
50804;DHT22;37205;51.434;6.756;2022-10-31T08:03:08;13.30;99.90
50804;DHT22;37205;51.434;6.756;2022-10-31T08:05:34;13.40;99.90
50804;DHT22;37205;51.434;6.756;2022-10-31T08:08:00;13.40;99.90
50804;DHT22;37205;51.434;6.756;2022-10-31T08:10:27;13.40;99.90
50804;DHT22;37205;51.434;6.756;2022-10-31T08:13:13;13.40;99.90
50804;DHT22;37205;51.434;6.756;2022-10-31T08:15:38;13.40;99.90
50804;DHT22;37205;51.434;6.756;2022-10-31T08:18:10;13.40;99.90
50804;DHT22;37205;51.434;6.756;2022-10-31T08:20:36;13.40;99.90
50804;DHT22;37205;51.434;6.756;2022-10-31T08:23:04;13.40;99.90
50804;DHT22;37205;51.434;6.756;2022-10-31T08:25:32;13.50;99.90
50804;DHT22;37205;51.434;6.756;2022-10-31T08:27:58;13.50;99.90
50804;DHT22;37205;51.434;6.756;2022-10-31T08:30:26;13.50;99.90
50804;DHT22;37205;51.434;6.756;2022-10-31T08:33:14;13.50;99.90
50804;DHT22;37205;51.434;6.756;2022-10-31T08:35:40;13.50;99.90
50804;DHT22;37205;51.434;6.756;2022-10-31T08:38:07;13.50;99.90
50804;DHT22;37205;51.434;6.756;2022-10-31T08:40:34;13.60;99.90
50804;DHT22;37205;51.434;6.756;2022-10-31T08:43:04;13.60;99.90
50804;DHT22;37205;51.434;6.756;2022-10-31T08:45:31;13.60;99.90
50804;DHT22;37205;51.434;6.756;2022-10-31T08:47:58;13.60;99.90
50804;DHT22;37205;51.434;6.756;2022-10-31T08:50:24;13.70;99.90
50804;DHT22;37205;51.434;6.756;2022-10-31T08:52:50;13.70;99.90
50804;DHT22;37205;51.434;6.756;2022-10-31T08:55:15;13.70;99.90
50804;DHT22;37205;51.434;6.756;2022-10-31T08:57:41;13.70;99.90
50804;DHT22;37205;51.434;6.756;2022-10-31T09:00:07;13.80;99.90
50804;DHT22;37205;51.434;6.756;2022-10-31T09:02:33;13.80;99.90
50804;DHT22;37205;51.434;6.756;2022-10-31T09:04:58;13.80;99.90
50804;DHT22;37205;51.434;6.756;2022-10-31T09:07:24;13.80;99.90
50804;DHT22;37205;51.434;6.756;2022-10-31T09:09:49;13.90;99.90
50804;DHT22;37205;51.434;6.756;2022-10-31T09:12:15;13.90;99.90
50804;DHT22;37205;51.434;6.756;2022-10-31T09:14:40;13.90;99.90
50804;DHT22;37205;51.434;6.756;2022-10-31T09:17:06;14.00;99.90
50804;DHT22;37205;51.434;6.756;2022-10-31T09:19:32;14.00;99.90
50804;DHT22;37205;51.434;6.756;2022-10-31T09:21:57;14.00;99.90
50804;DHT22;37205;51.434;6.756;2022-10-31T09:24:23;14.00;99.90
50804;DHT22;37205;51.434;6.756;2022-10-31T09:26:48;14.10;99.90
50804;DHT22;37205;51.434;6.756;2022-10-31T09:29:14;14.20;99.90
50804;DHT22;37205;51.434;6.756;2022-10-31T09:31:39;14.20;99.90
50804;DHT22;37205;51.434;6.756;2022-10-31T09:34:05;14.30;99.90
50804;DHT22;37205;51.434;6.756;2022-10-31T09:36:31;14.40;99.90
50804;DHT22;37205;51.434;6.756;2022-10-31T09:38:56;14.40;99.90
50804;DHT22;37205;51.434;6.756;2022-10-31T09:42:19;14.50;99.90
50804;DHT22;37205;51.434;6.756;2022-10-31T09:44:27;14.50;99.90
50804;DHT22;37205;51.434;6.756;2022-10-31T09:52:24;14.70;99.90
50804;DHT22;37205;51.434;6.756;2022-10-31T09:54:53;14.80;99.90
50804;DHT22;37205;51.434;6.756;2022-10-31T09:57:27;14.80;99.90
50804;DHT22;37205;51.434;6.756;2022-10-31T09:59:54;14.90;99.90
50804;DHT22;37205;51.434;6.756;2022-10-31T10:02:43;14.90;99.90
50804;DHT22;37205;51.434;6.756;2022-10-31T10:05:12;15.00;99.90
50804;DHT22;37205;51.434;6.756;2022-10-31T10:07:51;15.10;99.90
50804;DHT22;37205;51.434;6.756;2022-10-31T10:10:51;15.20;99.90
50804;DHT22;37205;51.434;6.756;2022-10-31T10:16:17;15.40;99.90
50804;DHT22;37205;51.434;6.756;2022-10-31T10:21:37;15.50;99.90
50804;DHT22;37205;51.434;6.756;2022-10-31T10:32:24;15.90;99.90
50804;DHT22;37205;51.434;6.756;2022-10-31T10:35:32;15.90;99.90
50804;DHT22;37205;51.434;6.756;2022-10-31T10:37:52;16.00;99.90
50804;DHT22;37205;51.434;6.756;2022-10-31T10:40:21;16.00;99.90
50804;DHT22;37205;51.434;6.756;2022-10-31T10:43:30;16.10;99.90
50804;DHT22;37205;51.434;6.756;2022-10-31T10:45:52;16.10;99.90
50804;DHT22;37205;51.434;6.756;2022-10-31T10:48:48;16.20;99.90
50804;DHT22;37205;51.434;6.756;2022-10-31T10:51:31;16.30;99.90
50804;DHT22;37205;51.434;6.756;2022-10-31T10:57:22;16.40;99.90
50804;DHT22;37205;51.434;6.756;2022-10-31T10:59:53;16.50;99.90
50804;DHT22;37205;51.434;6.756;2022-10-31T11:02:19;16.60;99.90
50804;DHT22;37205;51.434;6.756;2022-10-31T11:04:50;16.70;99.90
50804;DHT22;37205;51.434;6.756;2022-10-31T11:07:16;16.80;99.90
50804;DHT22;37205;51.434;6.756;2022-10-31T11:09:42;16.80;99.90
50804;DHT22;37205;51.434;6.756;2022-10-31T11:12:11;16.90;99.90
50804;DHT22;37205;51.434;6.756;2022-10-31T11:14:51;17.00;99.90
50804;DHT22;37205;51.434;6.756;2022-10-31T11:20:27;17.10;99.90
50804;DHT22;37205;51.434;6.756;2022-10-31T11:23:19;17.20;99.90
50804;DHT22;37205;51.434;6.756;2022-10-31T11:25:55;17.30;99.90
50804;DHT22;37205;51.434;6.756;2022-10-31T11:28:22;17.40;99.90
50804;DHT22;37205;51.434;6.756;2022-10-31T11:30:52;17.40;99.90
50804;DHT22;37205;51.434;6.756;2022-10-31T11:33:48;17.50;99.90
50804;DHT22;37205;51.434;6.756;2022-10-31T11:36:21;17.60;99.90
50804;DHT22;37205;51.434;6.756;2022-10-31T11:38:48;17.70;99.90
50804;DHT22;37205;51.434;6.756;2022-10-31T11:41:19;17.70;99.90
50804;DHT22;37205;51.434;6.756;2022-10-31T11:44:04;17.80;99.90
50804;DHT22;37205;51.434;6.756;2022-10-31T11:46:52;17.80;99.90
50804;DHT22;37205;51.434;6.756;2022-10-31T11:49:35;17.90;99.90
50804;DHT22;37205;51.434;6.756;2022-10-31T11:52:24;17.90;99.90
50804;DHT22;37205;51.434;6.756;2022-10-31T11:55:03;18.00;99.90
50804;DHT22;37205;51.434;6.756;2022-10-31T11:57:50;18.10;99.90
50804;DHT22;37205;51.434;6.756;2022-10-31T12:08:31;18.30;99.90
50804;DHT22;37205;51.434;6.756;2022-10-31T12:13:51;18.40;99.90
50804;DHT22;37205;51.434;6.756;2022-10-31T12:16:28;18.50;99.90
50804;DHT22;37205;51.434;6.756;2022-10-31T12:19:50;18.50;99.90
50804;DHT22;37205;51.434;6.756;2022-10-31T12:24:39;18.60;99.90
50804;DHT22;37205;51.434;6.756;2022-10-31T12:30:08;18.60;99.90
50804;DHT22;37205;51.434;6.756;2022-10-31T12:33:11;18.70;99.90
50804;DHT22;37205;51.434;6.756;2022-10-31T12:35:45;18.80;99.90
50804;DHT22;37205;51.434;6.756;2022-10-31T12:41:51;18.90;99.90
50804;DHT22;37205;51.434;6.756;2022-10-31T12:52:54;19.10;99.90
50804;DHT22;37205;51.434;6.756;2022-10-31T12:58:37;19.20;99.90
50804;DHT22;37205;51.434;6.756;2022-10-31T13:07:04;19.40;99.90
50804;DHT22;37205;51.434;6.756;2022-10-31T13:09:58;19.40;99.90
50804;DHT22;37205;51.434;6.756;2022-10-31T13:12:27;19.40;99.90
50804;DHT22;37205;51.434;6.756;2022-10-31T13:14:58;19.50;99.90
50804;DHT22;37205;51.434;6.756;2022-10-31T13:17:38;19.50;99.90
50804;DHT22;37205;51.434;6.756;2022-10-31T13:20:42;19.50;99.90
50804;DHT22;37205;51.434;6.756;2022-10-31T13:23:18;19.50;99.90
50804;DHT22;37205;51.434;6.756;2022-10-31T13:25:50;19.60;99.90
50804;DHT22;37205;51.434;6.756;2022-10-31T13:28:38;19.60;99.90
50804;DHT22;37205;51.434;6.756;2022-10-31T13:31:06;19.60;99.90
50804;DHT22;37205;51.434;6.756;2022-10-31T13:33:43;19.60;99.90
50804;DHT22;37205;51.434;6.756;2022-10-31T13:39:23;19.80;99.90
50804;DHT22;37205;51.434;6.756;2022-10-31T13:44:27;19.80;99.90
50804;DHT22;37205;51.434;6.756;2022-10-31T13:46:54;19.80;99.90
50804;DHT22;37205;51.434;6.756;2022-10-31T13:54:37;19.70;99.90
50804;DHT22;37205;51.434;6.756;2022-10-31T13:57:17;19.70;99.90
50804;DHT22;37205;51.434;6.756;2022-10-31T13:59:52;19.70;99.90
50804;DHT22;37205;51.434;6.756;2022-10-31T14:02:25;19.70;99.90
50804;DHT22;37205;51.434;6.756;2022-10-31T14:04:52;19.70;99.90
50804;DHT22;37205;51.434;6.756;2022-10-31T14:07:22;19.70;99.90
50804;DHT22;37205;51.434;6.756;2022-10-31T14:09:52;19.70;99.90
50804;DHT22;37205;51.434;6.756;2022-10-31T14:15:15;19.60;99.90
50804;DHT22;37205;51.434;6.756;2022-10-31T14:17:55;19.70;99.90
50804;DHT22;37205;51.434;6.756;2022-10-31T14:20:41;19.70;99.90
50804;DHT22;37205;51.434;6.756;2022-10-31T14:26:51;19.70;99.90
50804;DHT22;37205;51.434;6.756;2022-10-31T14:28:54;19.80;99.90
50804;DHT22;37205;51.434;6.756;2022-10-31T14:31:37;19.70;99.90
50804;DHT22;37205;51.434;6.756;2022-10-31T14:34:24;19.70;99.90
50804;DHT22;37205;51.434;6.756;2022-10-31T14:40:02;19.70;99.90
50804;DHT22;37205;51.434;6.756;2022-10-31T14:48:43;19.70;99.90
50804;DHT22;37205;51.434;6.756;2022-10-31T14:51:22;19.70;99.90
50804;DHT22;37205;51.434;6.756;2022-10-31T14:53:51;19.70;99.90
50804;DHT22;37205;51.434;6.756;2022-10-31T14:56:22;19.70;99.90
50804;DHT22;37205;51.434;6.756;2022-10-31T14:58:50;19.70;99.90
50804;DHT22;37205;51.434;6.756;2022-10-31T15:01:27;19.70;99.90
50804;DHT22;37205;51.434;6.756;2022-10-31T15:03:57;19.70;99.90
50804;DHT22;37205;51.434;6.756;2022-10-31T15:06:24;19.70;99.90
50804;DHT22;37205;51.434;6.756;2022-10-31T15:08:52;19.70;99.90
50804;DHT22;37205;51.434;6.756;2022-10-31T15:11:20;19.60;99.90
50804;DHT22;37205;51.434;6.756;2022-10-31T15:13:53;19.60;99.90
50804;DHT22;37205;51.434;6.756;2022-10-31T15:16:58;19.60;99.90
50804;DHT22;37205;51.434;6.756;2022-10-31T15:19:27;19.50;99.90
50804;DHT22;37205;51.434;6.756;2022-10-31T15:21:54;19.50;99.90
50804;DHT22;37205;51.434;6.756;2022-10-31T15:24:36;19.50;99.90
50804;DHT22;37205;51.434;6.756;2022-10-31T15:27:05;19.50;99.90
50804;DHT22;37205;51.434;6.756;2022-10-31T15:29:35;19.50;99.90
50804;DHT22;37205;51.434;6.756;2022-10-31T15:32:25;19.50;99.90
50804;DHT22;37205;51.434;6.756;2022-10-31T15:34:52;19.40;99.90
50804;DHT22;37205;51.434;6.756;2022-10-31T15:37:20;19.50;99.90
50804;DHT22;37205;51.434;6.756;2022-10-31T15:39:48;19.40;99.90
50804;DHT22;37205;51.434;6.756;2022-10-31T15:42:22;19.40;99.90
50804;DHT22;37205;51.434;6.756;2022-10-31T15:47:38;19.30;99.90
50804;DHT22;37205;51.434;6.756;2022-10-31T15:50:23;19.20;99.90
50804;DHT22;37205;51.434;6.756;2022-10-31T15:52:50;19.10;99.90
50804;DHT22;37205;51.434;6.756;2022-10-31T15:57:43;19.00;99.90
50804;DHT22;37205;51.434;6.756;2022-10-31T16:05:47;18.80;99.90
50804;DHT22;37205;51.434;6.756;2022-10-31T16:08:32;18.80;99.90
50804;DHT22;37205;51.434;6.756;2022-10-31T16:13:37;18.60;99.90
50804;DHT22;37205;51.434;6.756;2022-10-31T16:16:15;18.60;99.90
50804;DHT22;37205;51.434;6.756;2022-10-31T16:18:42;18.60;99.90
50804;DHT22;37205;51.434;6.756;2022-10-31T16:21:09;18.60;99.90
50804;DHT22;37205;51.434;6.756;2022-10-31T16:23:36;18.50;99.90
50804;DHT22;37205;51.434;6.756;2022-10-31T16:26:07;18.50;99.90
50804;DHT22;37205;51.434;6.756;2022-10-31T16:28:33;18.50;99.90
50804;DHT22;37205;51.434;6.756;2022-10-31T16:30:59;18.50;99.90
50804;DHT22;37205;51.434;6.756;2022-10-31T16:33:35;18.50;99.90
50804;DHT22;37205;51.434;6.756;2022-10-31T16:38:53;18.40;99.90
50804;DHT22;37205;51.434;6.756;2022-10-31T16:41:19;18.30;99.90
50804;DHT22;37205;51.434;6.756;2022-10-31T16:43:45;18.40;99.90
50804;DHT22;37205;51.434;6.756;2022-10-31T16:46:22;18.30;99.90
50804;DHT22;37205;51.434;6.756;2022-10-31T16:48:48;18.30;99.90
50804;DHT22;37205;51.434;6.756;2022-10-31T16:51:14;18.20;99.90
50804;DHT22;37205;51.434;6.756;2022-10-31T16:53:39;18.20;99.90
50804;DHT22;37205;51.434;6.756;2022-10-31T16:56:05;18.20;99.90
50804;DHT22;37205;51.434;6.756;2022-10-31T16:58:37;18.20;99.90
50804;DHT22;37205;51.434;6.756;2022-10-31T17:01:05;18.10;99.90
50804;DHT22;37205;51.434;6.756;2022-10-31T17:03:31;18.10;99.90
50804;DHT22;37205;51.434;6.756;2022-10-31T17:05:57;18.10;99.90
50804;DHT22;37205;51.434;6.756;2022-10-31T17:08:23;18.00;99.90
50804;DHT22;37205;51.434;6.756;2022-10-31T17:10:53;18.00;99.90
50804;DHT22;37205;51.434;6.756;2022-10-31T17:13:22;18.00;99.90
50804;DHT22;37205;51.434;6.756;2022-10-31T17:15:50;17.90;99.90
50804;DHT22;37205;51.434;6.756;2022-10-31T17:18:17;17.80;99.90
50804;DHT22;37205;51.434;6.756;2022-10-31T17:20:43;17.80;99.90
50804;DHT22;37205;51.434;6.756;2022-10-31T17:23:11;17.70;99.90
50804;DHT22;37205;51.434;6.756;2022-10-31T17:25:37;17.70;99.90
50804;DHT22;37205;51.434;6.756;2022-10-31T17:28:03;17.70;99.90
50804;DHT22;37205;51.434;6.756;2022-10-31T17:30:30;17.70;99.90
50804;DHT22;37205;51.434;6.756;2022-10-31T17:32:56;17.70;99.90
50804;DHT22;37205;51.434;6.756;2022-10-31T17:35:22;17.70;99.90
50804;DHT22;37205;51.434;6.756;2022-10-31T17:37:48;17.60;99.90
50804;DHT22;37205;51.434;6.756;2022-10-31T17:40:17;17.60;99.90
50804;DHT22;37205;51.434;6.756;2022-10-31T17:42:56;17.60;99.90
50804;DHT22;37205;51.434;6.756;2022-10-31T17:45:24;17.60;99.90
50804;DHT22;37205;51.434;6.756;2022-10-31T17:47:53;17.60;99.90
50804;DHT22;37205;51.434;6.756;2022-10-31T17:50:21;17.50;99.90
50804;DHT22;37205;51.434;6.756;2022-10-31T17:52:47;17.50;99.90
50804;DHT22;37205;51.434;6.756;2022-10-31T17:55:14;17.50;99.90
50804;DHT22;37205;51.434;6.756;2022-10-31T17:57:40;17.50;99.90
50804;DHT22;37205;51.434;6.756;2022-10-31T18:00:08;17.50;99.90